Eagleton, Wisconsin
Current Conditions -  °F | °C
As of 2:55 AM on Saturday 25 Oct 2014 (Local Time) from KY23 Reporting Station
Clear Clear  
Wind Chill: 52°   Ceiling: Unl
Heat Index: 52°   Visibility: 10mi
Dew Point: 45°   Wind: 6mph
Humidity: 75%   Direction: 280°W
Pressure: 29.89"   Gusts: NA
Location:  45.1062°N, 91.4948°W
Report Text: KY23 250755Z AUTO 28005KT 10SM CLR 11/07 A2989 RMK AO2 T01130070
Loading
Personal Weather Stations






























Interactive Weather Map
Tropical Storm Tracking
New forecast layout! Learn more

10-Day Weather Forecast

Advertisements
Track Severe Weather on mobile